createdAt,value
2018-05-27T00:00:06.348Z,18.27
2018-05-27T00:01:10.962Z,18.20
2018-05-27T00:02:15.563Z,18.20
2018-05-27T00:03:21.353Z,18.16
2018-05-27T00:04:25.970Z,18.14
2018-05-27T00:05:31.761Z,18.17
2018-05-27T00:06:36.590Z,18.25
2018-05-27T00:07:41.155Z,18.23
2018-05-27T00:08:45.713Z,18.24
2018-05-27T00:09:50.261Z,18.30
2018-05-27T00:10:55.373Z,18.38
2018-05-27T00:12:00.089Z,18.42
2018-05-27T00:13:04.892Z,18.37
2018-05-27T00:14:09.750Z,18.35
2018-05-27T00:15:16.099Z,18.41
2018-05-27T00:16:21.980Z,18.43
2018-05-27T00:17:27.462Z,18.44
2018-05-27T00:18:31.968Z,18.41
2018-05-27T00:19:36.752Z,18.32
2018-05-27T00:20:41.238Z,18.33
2018-05-27T00:21:45.731Z,18.23
2018-05-27T00:22:50.674Z,18.18
2018-05-27T00:23:55.140Z,18.05
2018-05-27T00:24:59.709Z,18.12
2018-05-27T00:26:04.718Z,18.17
2018-05-27T00:27:09.539Z,18.17
2018-05-27T00:28:14.049Z,18.19
2018-05-27T00:29:19.648Z,18.20
2018-05-27T00:30:24.201Z,18.24
2018-05-27T00:31:28.721Z,18.29
2018-05-27T00:32:33.517Z,18.24
2018-05-27T00:33:38.908Z,18.06
2018-05-27T00:34:43.391Z,18.11
2018-05-27T00:35:48.181Z,18.11
2018-05-27T00:36:53.725Z,18.04
2018-05-27T00:37:59.024Z,18.06
2018-05-27T00:39:03.936Z,18.00
2018-05-27T00:40:08.423Z,18.04
2018-05-27T00:41:13.082Z,17.98
2018-05-27T00:42:18.140Z,18.01
2018-05-27T00:43:22.626Z,18.06
2018-05-27T00:44:27.113Z,18.11
2018-05-27T00:45:31.957Z,18.15
2018-05-27T00:46:37.219Z,18.11
2018-05-27T00:47:41.969Z,18.12
2018-05-27T00:48:46.473Z,18.08
2018-05-27T00:49:51.254Z,18.12
2018-05-27T00:50:55.876Z,18.15
2018-05-27T00:52:00.656Z,18.20
2018-05-27T00:53:05.601Z,18.22
2018-05-27T00:54:10.658Z,18.29
2018-05-27T00:55:15.786Z,18.38
2018-05-27T00:56:20.255Z,18.22
2018-05-27T00:57:24.738Z,18.03
2018-05-27T00:58:29.944Z,17.82
2018-05-27T00:59:34.747Z,17.78
2018-05-27T01:00:39.280Z,17.59
2018-05-27T01:01:43.855Z,17.73
2018-05-27T01:02:49.001Z,17.61
2018-05-27T01:03:53.850Z,17.53
2018-05-27T01:04:59.537Z,17.40
2018-05-27T01:06:04.131Z,17.10
2018-05-27T01:07:08.871Z,16.94
2018-05-27T01:08:13.473Z,16.75
2018-05-27T01:09:18.042Z,16.80
2018-05-27T01:10:22.889Z,17.02
2018-05-27T01:11:28.377Z,17.17
2018-05-27T01:12:33.005Z,17.18
2018-05-27T01:13:37.608Z,17.18
2018-05-27T01:14:42.212Z,17.29
2018-05-27T01:15:46.859Z,17.39
2018-05-27T01:16:52.986Z,17.48
2018-05-27T01:17:57.482Z,17.53
2018-05-27T01:19:02.210Z,17.58
2018-05-27T01:20:06.785Z,17.51
2018-05-27T01:21:11.497Z,17.34
2018-05-27T01:22:16.418Z,17.04
2018-05-27T01:23:21.226Z,16.87
2018-05-27T01:24:27.384Z,17.04
2018-05-27T01:25:39.939Z,17.03
2018-05-27T01:26:46.325Z,17.13
2018-05-27T01:27:50.979Z,17.22
2018-05-27T01:28:55.493Z,17.35
2018-05-27T01:30:00.330Z,17.43
2018-05-27T01:31:04.855Z,17.50
2018-05-27T01:32:09.776Z,17.54
2018-05-27T01:33:14.226Z,17.60
2018-05-27T01:34:18.816Z,17.64
2018-05-27T01:35:23.319Z,17.61
2018-05-27T01:36:28.660Z,17.40
2018-05-27T01:37:34.378Z,17.25
2018-05-27T01:38:39.797Z,17.05
2018-05-27T01:39:44.302Z,16.94
2018-05-27T01:40:48.770Z,17.01
2018-05-27T01:41:53.314Z,17.08
2018-05-27T01:42:58.774Z,17.16
2018-05-27T01:44:03.240Z,17.21
2018-05-27T01:45:07.757Z,17.34
2018-05-27T01:46:12.204Z,17.35
2018-05-27T01:47:16.724Z,17.29
2018-05-27T01:48:21.485Z,17.32
2018-05-27T01:49:26.444Z,17.27
2018-05-27T01:50:32.168Z,17.25
2018-05-27T01:51:36.730Z,17.21
2018-05-27T01:52:41.379Z,17.18
2018-05-27T01:53:45.858Z,17.17
2018-05-27T01:54:50.708Z,17.19
2018-05-27T01:55:55.529Z,17.22
2018-05-27T01:57:00.209Z,17.16
2018-05-27T01:58:04.665Z,17.18
2018-05-27T01:59:10.972Z,17.25
2018-05-27T02:00:15.433Z,17.32
2018-05-27T02:01:20.951Z,17.30
2018-05-27T02:02:27.585Z,17.38
2018-05-27T02:03:32.076Z,17.27
2018-05-27T02:04:37.265Z,17.30
2018-05-27T02:05:41.781Z,17.25
2018-05-27T02:06:46.942Z,17.32
2018-05-27T02:07:52.601Z,17.37
2018-05-27T02:08:57.771Z,17.41
2018-05-27T02:10:02.253Z,17.38
2018-05-27T02:11:07.680Z,17.37
2018-05-27T02:12:12.715Z,17.39
2018-05-27T02:13:17.158Z,17.38
2018-05-27T02:14:21.629Z,17.25
2018-05-27T02:15:26.868Z,17.19
2018-05-27T02:16:31.346Z,17.16
2018-05-27T02:17:36.082Z,17.04
2018-05-27T02:18:41.720Z,17.04
2018-05-27T02:19:46.926Z,17.14
2018-05-27T02:20:51.421Z,17.19
2018-05-27T02:21:56.151Z,17.21
2018-05-27T02:23:00.623Z,17.19
2018-05-27T02:24:05.651Z,17.18
2018-05-27T02:25:10.737Z,17.08
2018-05-27T02:26:15.202Z,17.02
2018-05-27T02:27:19.831Z,16.94
2018-05-27T02:28:24.537Z,16.99
2018-05-27T02:29:30.184Z,17.13
2018-05-27T02:30:35.411Z,17.22
2018-05-27T02:31:40.480Z,17.28
2018-05-27T02:32:44.940Z,17.29
2018-05-27T02:33:50.057Z,17.26
2018-05-27T02:34:54.832Z,17.24
2018-05-27T02:36:00.389Z,17.22
2018-05-27T02:37:04.909Z,17.27
2018-05-27T02:38:09.883Z,17.31
2018-05-27T02:39:14.871Z,17.32
2018-05-27T02:40:20.341Z,17.30
2018-05-27T02:41:25.886Z,17.29
2018-05-27T02:42:30.917Z,17.24
2018-05-27T02:43:35.502Z,17.05
2018-05-27T02:44:40.088Z,17.01
2018-05-27T02:45:44.635Z,17.08
2018-05-27T02:46:49.446Z,17.10
2018-05-27T02:47:56.710Z,17.10
2018-05-27T02:49:01.265Z,16.92
2018-05-27T02:50:05.830Z,16.65
2018-05-27T02:51:10.951Z,16.58
2018-05-27T02:52:15.927Z,16.61
2018-05-27T02:53:20.776Z,16.43
2018-05-27T02:54:25.314Z,16.45
2018-05-27T02:55:29.879Z,16.41
2018-05-27T02:56:34.424Z,16.46
2018-05-27T02:57:38.977Z,16.34
2018-05-27T02:58:43.511Z,16.21
2018-05-27T02:59:49.373Z,16.24
2018-05-27T03:00:55.099Z,16.13
2018-05-27T03:01:59.657Z,16.03
2018-05-27T03:03:04.169Z,16.06
2018-05-27T03:04:10.612Z,16.15
2018-05-27T03:05:15.205Z,16.29
2018-05-27T03:06:20.060Z,16.36
2018-05-27T03:07:24.609Z,16.34
2018-05-27T03:08:29.162Z,16.27
2018-05-27T03:09:33.697Z,16.40
2018-05-27T03:10:38.833Z,16.49
2018-05-27T03:11:43.409Z,16.54
2018-05-27T03:12:48.673Z,16.63
2018-05-27T03:13:53.628Z,16.71
2018-05-27T03:14:58.182Z,16.70
2018-05-27T03:16:02.640Z,16.77
2018-05-27T03:17:07.146Z,16.71
2018-05-27T03:18:11.595Z,16.46
2018-05-27T03:19:17.491Z,16.38
2018-05-27T03:20:22.005Z,16.25
2018-05-27T03:21:26.643Z,16.15
2018-05-27T03:22:31.211Z,16.20
2018-05-27T03:23:36.439Z,16.24
2018-05-27T03:24:41.041Z,16.22
2018-05-27T03:25:46.073Z,16.27
2018-05-27T03:26:50.674Z,16.41
2018-05-27T03:27:55.243Z,16.32
2018-05-27T03:28:59.793Z,16.34
2018-05-27T03:30:04.328Z,16.26
2018-05-27T03:31:09.470Z,16.07
2018-05-27T03:32:14.482Z,16.00
2018-05-27T03:33:20.096Z,16.20
2018-05-27T03:34:24.625Z,16.29
2018-05-27T03:35:29.863Z,16.30
2018-05-27T03:36:34.424Z,16.33
2018-05-27T03:37:38.939Z,16.29
2018-05-27T03:38:43.815Z,16.07
2018-05-27T03:39:48.654Z,15.90
2018-05-27T03:40:54.183Z,15.68
2018-05-27T03:41:59.466Z,15.72
2018-05-27T03:43:03.995Z,15.77
2018-05-27T03:44:08.942Z,15.93
2018-05-27T03:45:13.973Z,16.12
2018-05-27T03:46:18.510Z,16.17
2018-05-27T03:47:23.057Z,16.11
2018-05-27T03:48:28.943Z,15.97
2018-05-27T03:49:33.477Z,15.84
2018-05-27T03:50:39.069Z,15.80
2018-05-27T03:51:44.388Z,15.90
2018-05-27T03:52:49.492Z,15.85
2018-05-27T03:53:54.084Z,15.92
2018-05-27T03:54:58.657Z,15.96
2018-05-27T03:56:03.453Z,16.06
2018-05-27T03:57:08.036Z,16.15
2018-05-27T03:58:13.048Z,16.16
2018-05-27T03:59:17.604Z,16.31
2018-05-27T04:00:22.357Z,16.33
2018-05-27T04:01:28.044Z,16.36
2018-05-27T04:02:32.602Z,16.31
2018-05-27T04:03:37.170Z,16.21
2018-05-27T04:06:48.274Z,16.14
2018-05-27T04:08:57.145Z,16.42
2018-05-27T04:10:02.683Z,16.44
2018-05-27T04:11:09.428Z,16.26
2018-05-27T04:12:13.957Z,15.98
2018-05-27T04:13:18.537Z,16.01
2018-05-27T04:14:23.178Z,16.08
2018-05-27T04:15:27.862Z,16.16
2018-05-27T04:16:32.476Z,16.10
2018-05-27T04:17:38.537Z,16.14
2018-05-27T04:18:43.101Z,16.11
2018-05-27T04:19:48.551Z,16.15
2018-05-27T04:20:55.582Z,16.16
2018-05-27T04:22:00.180Z,16.13
2018-05-27T04:23:04.945Z,16.17
2018-05-27T04:24:10.824Z,16.28
2018-05-27T04:25:15.403Z,16.34
2018-05-27T04:26:19.952Z,16.38
2018-05-27T04:27:24.498Z,16.41
2018-05-27T04:28:29.870Z,16.47
2018-05-27T04:29:35.671Z,16.60
2018-05-27T04:30:41.778Z,16.63
2018-05-27T04:32:58.548Z,16.59
2018-05-27T04:34:03.913Z,16.47
2018-05-27T04:35:08.625Z,16.34
2018-05-27T04:36:13.931Z,16.32
2018-05-27T04:37:19.940Z,16.39
2018-05-27T04:38:24.538Z,16.50
2018-05-27T04:39:29.072Z,16.63
2018-05-27T04:40:33.829Z,16.73
2018-05-27T04:41:38.931Z,16.81
2018-05-27T04:42:43.706Z,16.88
2018-05-27T04:43:48.765Z,16.96
2018-05-27T04:44:53.324Z,16.97
2018-05-27T04:45:57.862Z,16.98
2018-05-27T04:47:03.262Z,16.89
2018-05-27T04:48:07.792Z,16.57
2018-05-27T04:49:12.325Z,16.33
2018-05-27T04:50:17.574Z,16.26
2018-05-27T04:51:22.982Z,16.32
2018-05-27T04:52:28.818Z,16.42
2018-05-27T04:53:33.417Z,16.58
2018-05-27T04:54:39.361Z,16.73
2018-05-27T04:55:44.183Z,16.86
2018-05-27T04:56:49.393Z,16.88
2018-05-27T04:57:53.961Z,16.87
2018-05-27T04:58:59.287Z,16.81
2018-05-27T05:00:05.164Z,16.84
2018-05-27T05:01:09.745Z,16.58
2018-05-27T05:02:14.270Z,16.40
2018-05-27T05:03:19.140Z,16.28
2018-05-27T05:04:23.692Z,16.24
2018-05-27T05:05:28.347Z,16.13
2018-05-27T05:06:32.829Z,16.09
2018-05-27T05:07:37.294Z,16.10
2018-05-27T05:08:41.777Z,16.25
2018-05-27T05:09:46.754Z,16.43
2018-05-27T05:10:51.221Z,16.56
2018-05-27T05:11:55.714Z,16.65
2018-05-27T05:13:00.217Z,16.70
2018-05-27T05:14:04.713Z,16.85
2018-05-27T05:15:09.218Z,17.04
2018-05-27T05:16:14.005Z,17.19
2018-05-27T05:17:18.478Z,17.34
2018-05-27T05:18:22.982Z,17.47
2018-05-27T05:19:27.459Z,17.53
2018-05-27T05:20:31.924Z,17.57
2018-05-27T05:21:36.421Z,17.59
2018-05-27T05:22:41.283Z,17.65
2018-05-27T05:23:45.736Z,17.68
2018-05-27T05:24:50.232Z,17.81
2018-05-27T05:25:54.677Z,17.94
2018-05-27T05:26:59.369Z,18.01
2018-05-27T05:28:03.853Z,18.00
2018-05-27T05:29:08.768Z,17.91
2018-05-27T05:30:13.274Z,17.87
2018-05-27T05:31:17.726Z,18.04
2018-05-27T05:32:22.165Z,18.16
2018-05-27T05:33:26.626Z,18.23
2018-05-27T05:34:31.097Z,18.25
2018-05-27T05:35:36.035Z,18.34
2018-05-27T05:36:40.483Z,18.45
2018-05-27T05:37:44.927Z,18.53
2018-05-27T05:38:49.385Z,18.56
2018-05-27T05:39:53.940Z,18.62
2018-05-27T05:40:58.816Z,18.65
2018-05-27T05:42:03.923Z,18.70
2018-05-27T05:43:08.962Z,18.66
2018-05-27T05:44:13.564Z,18.77
2018-05-27T05:45:19.861Z,18.86
2018-05-27T05:46:24.477Z,18.87
2018-05-27T05:47:29.044Z,18.90
2018-05-27T05:48:34.000Z,18.98
2018-05-27T05:49:38.641Z,19.03
2018-05-27T05:50:43.217Z,19.10
2018-05-27T05:51:47.789Z,19.02
2018-05-27T05:52:53.736Z,19.09
2018-05-27T05:53:58.382Z,19.15
2018-05-27T05:55:04.317Z,19.00
2018-05-27T05:56:08.994Z,18.89
2018-05-27T05:57:15.373Z,18.94
2018-05-27T05:58:19.909Z,19.10
2018-05-27T05:59:24.866Z,19.19
2018-05-27T06:00:31.207Z,19.34
2018-05-27T06:01:36.066Z,19.42
2018-05-27T06:02:40.815Z,19.35
2018-05-27T06:03:45.748Z,19.41
2018-05-27T06:04:51.619Z,19.36
2018-05-27T06:05:56.238Z,19.46
2018-05-27T06:07:01.190Z,19.49
2018-05-27T06:08:07.246Z,19.55
2018-05-27T06:09:12.815Z,19.72
2018-05-27T06:10:17.798Z,19.87
2018-05-27T06:11:22.493Z,19.91
2018-05-27T06:12:27.787Z,19.88
2018-05-27T06:13:33.025Z,19.95
2018-05-27T06:14:38.840Z,19.97
2018-05-27T06:15:43.983Z,20.03
2018-05-27T06:16:48.855Z,20.13
2018-05-27T06:17:53.957Z,20.12
2018-05-27T06:18:58.518Z,20.15
2018-05-27T06:20:03.143Z,20.24
2018-05-27T06:21:09.130Z,20.36
2018-05-27T06:22:13.692Z,20.41
2018-05-27T06:23:18.279Z,20.48
2018-05-27T06:24:22.839Z,20.69
2018-05-27T06:25:27.397Z,20.78
2018-05-27T06:26:32.650Z,20.86
2018-05-27T06:27:37.735Z,20.94
2018-05-27T06:28:42.312Z,21.01
2018-05-27T06:29:47.637Z,21.12
2018-05-27T06:30:52.229Z,21.15
2018-05-27T06:31:56.876Z,21.18
2018-05-27T06:33:01.714Z,21.07
2018-05-27T06:34:07.294Z,21.20
2018-05-27T06:35:11.806Z,21.25
2018-05-27T06:36:17.648Z,21.29
2018-05-27T06:37:23.108Z,21.19
2018-05-27T06:38:27.829Z,21.42
2018-05-27T06:39:33.223Z,21.44
2018-05-27T06:40:38.430Z,21.45
2018-05-27T06:41:42.857Z,21.53
2018-05-27T06:42:48.866Z,21.61
2018-05-27T06:43:54.017Z,21.70
2018-05-27T06:44:58.570Z,21.69
2018-05-27T06:46:03.459Z,21.77
2018-05-27T06:47:09.693Z,21.89
2018-05-27T06:48:14.287Z,21.96
2018-05-27T06:49:18.881Z,22.00
2018-05-27T06:50:23.603Z,21.76
2018-05-27T06:51:29.037Z,21.74
2018-05-27T06:52:33.569Z,21.88
2018-05-27T06:53:38.459Z,21.90
2018-05-27T06:54:43.058Z,21.93
2018-05-27T06:55:47.763Z,21.84
2018-05-27T06:56:52.830Z,22.00
2018-05-27T06:57:57.794Z,22.14
2018-05-27T06:59:03.375Z,22.21
2018-05-27T07:00:08.457Z,22.27
2018-05-27T07:01:13.069Z,22.15
2018-05-27T07:02:18.482Z,22.39
2018-05-27T07:03:24.176Z,22.57
2018-05-27T07:04:28.776Z,22.80
2018-05-27T07:05:33.380Z,22.96
2018-05-27T07:06:39.369Z,23.05
2018-05-27T07:07:43.943Z,23.11
2018-05-27T07:08:48.485Z,23.09
2018-05-27T07:09:53.058Z,22.93
2018-05-27T07:10:57.634Z,23.04
2018-05-27T07:12:03.236Z,23.04
2018-05-27T07:13:08.245Z,23.08
2018-05-27T07:14:13.748Z,23.16
2018-05-27T07:15:18.338Z,23.32
2018-05-27T07:16:22.932Z,23.29
2018-05-27T07:17:29.021Z,23.38
2018-05-27T07:18:36.030Z,23.55
2018-05-27T07:19:40.698Z,23.66
2018-05-27T07:20:45.345Z,23.77
2018-05-27T07:21:49.996Z,23.85
2018-05-27T07:22:54.548Z,23.81
2018-05-27T07:23:59.138Z,23.90
2018-05-27T07:25:04.012Z,24.05
2018-05-27T07:26:08.533Z,23.98
2018-05-27T07:27:13.303Z,24.08
2018-05-27T07:28:17.898Z,23.97
2018-05-27T07:29:22.836Z,23.93
2018-05-27T07:30:27.728Z,23.95
2018-05-27T07:31:32.470Z,24.13
2018-05-27T07:32:36.981Z,24.13
2018-05-27T07:33:43.191Z,24.24
2018-05-27T07:34:47.691Z,24.38
2018-05-27T07:35:52.156Z,24.28
2018-05-27T07:36:56.719Z,24.40
2018-05-27T07:38:01.843Z,24.27
2018-05-27T07:39:06.471Z,24.41
2018-05-27T07:40:11.025Z,24.40
2018-05-27T07:41:16.675Z,24.35
2018-05-27T07:42:21.500Z,24.37
2018-05-27T07:43:26.052Z,24.26
2018-05-27T07:44:31.351Z,24.28
2018-05-27T07:45:35.941Z,24.20
2018-05-27T07:46:40.782Z,24.28
2018-05-27T07:47:46.556Z,24.38
2018-05-27T07:48:51.281Z,24.39
2018-05-27T07:49:56.152Z,24.55
2018-05-27T07:51:00.888Z,24.67
2018-05-27T07:53:45.327Z,24.38
2018-05-27T07:54:51.033Z,24.31
2018-05-27T07:56:01.782Z,24.32
2018-05-27T07:57:07.434Z,24.28
2018-05-27T07:58:13.860Z,24.18
2018-05-27T07:59:18.415Z,24.39
2018-05-27T08:00:23.192Z,24.39
2018-05-27T08:01:27.763Z,24.43
2018-05-27T08:02:32.790Z,24.52
2018-05-27T08:03:37.468Z,24.71
2018-05-27T08:04:43.124Z,24.63
2018-05-27T08:05:47.753Z,24.70
2018-05-27T08:06:53.480Z,24.76
2018-05-27T08:07:58.349Z,24.72
2018-05-27T08:09:03.103Z,24.76
2018-05-27T08:10:09.790Z,24.65
2018-05-27T08:11:14.338Z,24.70
2018-05-27T08:12:18.880Z,24.83
2018-05-27T08:13:23.570Z,24.89
2018-05-27T08:14:28.433Z,24.96
2018-05-27T08:15:32.963Z,25.07
2018-05-27T08:16:37.498Z,24.74
2018-05-27T08:17:42.749Z,24.88
2018-05-27T08:18:48.862Z,25.12
2018-05-27T08:19:53.703Z,25.31
2018-05-27T08:20:58.824Z,25.43
2018-05-27T08:22:04.039Z,25.33
2018-05-27T08:23:09.316Z,25.34
2018-05-27T08:24:14.395Z,25.42
2018-05-27T08:25:20.522Z,25.47
2018-05-27T08:26:25.648Z,25.81
2018-05-27T08:27:30.640Z,25.99
2018-05-27T08:28:36.244Z,25.90
2018-05-27T08:29:41.072Z,25.92
2018-05-27T08:30:46.659Z,25.94
2018-05-27T08:31:51.861Z,25.97
2018-05-27T08:32:56.485Z,25.90
2018-05-27T08:34:01.392Z,25.87
2018-05-27T08:35:05.989Z,26.04
2018-05-27T08:36:10.619Z,25.97
2018-05-27T08:37:15.211Z,26.06
2018-05-27T08:38:19.841Z,25.71
2018-05-27T08:39:24.429Z,25.81
2018-05-27T08:40:31.213Z,26.07
2018-05-27T08:41:36.216Z,26.23
2018-05-27T08:42:40.809Z,26.34
2018-05-27T08:43:45.351Z,26.28
2018-05-27T08:44:49.950Z,26.26
2018-05-27T08:45:56.260Z,26.36
2018-05-27T08:47:01.436Z,26.36
2018-05-27T08:48:07.275Z,26.37
2018-05-27T08:49:22.652Z,26.44
2018-05-27T08:50:32.103Z,26.59
2018-05-27T08:51:42.824Z,26.49
2018-05-27T08:52:49.216Z,26.43
2018-05-27T08:53:57.743Z,26.46
2018-05-27T08:55:07.704Z,26.70
2018-05-27T08:56:13.648Z,26.66
2018-05-27T08:57:18.296Z,26.69
2018-05-27T08:58:25.407Z,26.45
2018-05-27T08:59:30.874Z,26.45
2018-05-27T09:00:36.284Z,26.59
2018-05-27T09:01:41.091Z,26.78
2018-05-27T09:02:46.797Z,26.98
2018-05-27T09:03:51.400Z,26.82
2018-05-27T09:04:55.990Z,26.64
2018-05-27T09:06:03.775Z,26.62
2018-05-27T09:07:08.909Z,26.88
2018-05-27T09:08:13.810Z,26.87
2018-05-27T09:09:20.135Z,26.84
2018-05-27T09:10:24.778Z,27.01
2018-05-27T09:11:29.623Z,26.76
2018-05-27T09:12:34.942Z,26.66
2018-05-27T09:13:40.037Z,26.87
2018-05-27T09:14:44.644Z,26.95
2018-05-27T09:15:49.272Z,27.23
2018-05-27T09:16:54.414Z,26.92
2018-05-27T09:17:59.101Z,26.63
2018-05-27T09:19:04.568Z,26.38
2018-05-27T09:20:09.589Z,26.33
2018-05-27T09:21:14.205Z,26.41
2018-05-27T09:22:18.810Z,26.44
2018-05-27T09:23:24.573Z,26.36
2018-05-27T09:24:29.233Z,26.65
2018-05-27T09:25:34.245Z,26.58
2018-05-27T09:26:39.118Z,25.78
2018-05-27T09:27:43.757Z,25.39
2018-05-27T09:28:48.472Z,25.21
2018-05-27T09:29:53.056Z,25.32
2018-05-27T09:30:57.849Z,25.33
2018-05-27T09:32:02.594Z,25.29
2018-05-27T09:33:07.579Z,25.31
2018-05-27T09:34:12.166Z,25.78
2018-05-27T09:35:17.198Z,25.99
2018-05-27T09:36:21.839Z,26.08
2018-05-27T09:37:26.419Z,26.18
2018-05-27T09:38:31.490Z,26.42
2018-05-27T09:39:36.129Z,26.40
2018-05-27T09:40:40.773Z,26.67
2018-05-27T09:41:45.782Z,26.39
2018-05-27T09:42:50.498Z,26.19
2018-05-27T09:43:55.183Z,26.01
2018-05-27T09:45:00.880Z,25.98
2018-05-27T09:46:06.317Z,25.74
2018-05-27T09:47:10.967Z,25.96
2018-05-27T09:48:16.011Z,25.83
2018-05-27T09:49:20.675Z,25.76
2018-05-27T09:50:26.296Z,25.73
2018-05-27T09:51:31.560Z,25.73
2018-05-27T09:52:36.221Z,25.79
2018-05-27T09:53:41.506Z,25.82
2018-05-27T09:54:46.393Z,25.61
2018-05-27T09:55:51.358Z,25.42
2018-05-27T09:56:56.608Z,25.40
2018-05-27T09:58:01.687Z,25.27
2018-05-27T09:59:06.221Z,25.34
2018-05-27T10:00:11.677Z,25.59
2018-05-27T10:01:16.144Z,25.45
2018-05-27T10:02:20.685Z,25.65
2018-05-27T10:03:25.227Z,25.67
2018-05-27T10:04:30.804Z,25.26
2018-05-27T10:05:36.934Z,25.47
2018-05-27T10:06:41.448Z,25.73
2018-05-27T10:07:45.941Z,26.07
2018-05-27T10:08:50.413Z,26.48
2018-05-27T10:09:54.924Z,26.72
2018-05-27T10:11:00.107Z,26.41
2018-05-27T10:12:04.591Z,26.10
2018-05-27T10:13:09.992Z,26.33
2018-05-27T10:14:14.530Z,26.05
2018-05-27T10:15:20.323Z,25.72
2018-05-27T10:16:26.562Z,25.90
2018-05-27T10:17:31.448Z,26.12
2018-05-27T10:18:37.659Z,26.29
2018-05-27T10:19:42.255Z,26.17
2018-05-27T10:20:48.205Z,25.87
2018-05-27T10:21:53.148Z,25.74
2018-05-27T10:22:58.659Z,25.71
2018-05-27T10:24:04.140Z,25.76
2018-05-27T10:25:09.114Z,25.95
2018-05-27T10:26:14.577Z,25.84
2018-05-27T10:27:19.070Z,25.67
2018-05-27T10:28:23.552Z,25.85
2018-05-27T10:29:28.333Z,26.08
2018-05-27T10:30:33.346Z,26.09
2018-05-27T10:31:38.354Z,25.98
2018-05-27T10:32:42.952Z,25.84
2018-05-27T10:33:47.430Z,25.68
2018-05-27T10:34:52.103Z,25.74
2018-05-27T10:35:56.667Z,26.08
2018-05-27T10:37:02.194Z,26.10
2018-05-27T10:38:06.908Z,25.70
2018-05-27T10:39:13.024Z,26.12
2018-05-27T10:40:18.414Z,26.60
2018-05-27T10:41:23.597Z,26.46
2018-05-27T10:42:28.296Z,26.45
2018-05-27T10:43:33.171Z,26.15
2018-05-27T10:44:38.381Z,26.03
2018-05-27T10:45:43.211Z,26.26
2018-05-27T10:46:47.790Z,26.53
2018-05-27T10:47:52.741Z,26.73
2018-05-27T10:48:57.969Z,26.38
2018-05-27T10:50:04.462Z,26.50
2018-05-27T10:51:10.664Z,26.77
2018-05-27T10:52:15.884Z,26.35
2018-05-27T10:53:20.369Z,26.32
2018-05-27T10:54:26.496Z,26.45
2018-05-27T10:55:31.332Z,26.77
2018-05-27T10:56:36.170Z,27.04
2018-05-27T10:57:40.813Z,26.82
2018-05-27T10:58:46.210Z,26.81
2018-05-27T10:59:51.187Z,26.65
2018-05-27T11:00:55.696Z,26.23
2018-05-27T11:02:04.445Z,26.33
2018-05-27T11:03:09.601Z,26.26
2018-05-27T11:04:16.622Z,26.57
2018-05-27T11:05:21.327Z,26.75
2018-05-27T11:06:27.837Z,27.10
2018-05-27T11:07:32.427Z,27.49
2018-05-27T11:08:37.160Z,27.65
2018-05-27T11:09:42.151Z,27.45
2018-05-27T11:10:46.751Z,27.41
2018-05-27T11:11:51.679Z,26.92
2018-05-27T11:12:56.262Z,26.77
2018-05-27T11:14:02.770Z,26.95
2018-05-27T11:15:07.351Z,27.29
2018-05-27T11:16:13.808Z,27.65
2018-05-27T11:17:18.990Z,27.44
2018-05-27T11:18:23.535Z,27.57
2018-05-27T11:19:28.868Z,27.78
2018-05-27T11:20:33.391Z,27.98
2018-05-27T11:21:38.940Z,27.95
2018-05-27T11:22:44.193Z,27.51
2018-05-27T11:23:49.698Z,27.06
2018-05-27T11:24:54.299Z,27.15
2018-05-27T11:25:59.098Z,26.98
2018-05-27T11:27:05.009Z,26.89
2018-05-27T11:28:09.552Z,26.73
2018-05-27T11:29:16.086Z,26.66
2018-05-27T11:30:20.614Z,26.55
2018-05-27T11:31:25.105Z,26.45
2018-05-27T11:32:29.746Z,26.47
2018-05-27T11:33:34.238Z,26.92
2018-05-27T11:34:39.850Z,27.06
2018-05-27T11:35:44.567Z,27.27
2018-05-27T11:36:51.566Z,27.38
2018-05-27T11:37:56.166Z,27.53
2018-05-27T11:39:00.883Z,27.59
2018-05-27T11:40:13.367Z,27.69
2018-05-27T11:41:20.197Z,27.84
2018-05-27T11:42:26.078Z,27.86
2018-05-27T11:43:30.759Z,28.02
2018-05-27T11:44:36.287Z,28.43
2018-05-27T11:45:41.113Z,28.07
2018-05-27T11:46:51.562Z,27.65
2018-05-27T11:47:57.313Z,27.46
2018-05-27T11:49:03.229Z,27.38
2018-05-27T11:50:08.105Z,27.39
2018-05-27T11:51:14.972Z,27.43
2018-05-27T11:52:19.855Z,27.22
2018-05-27T11:53:28.525Z,26.91
2018-05-27T11:54:34.700Z,26.67
2018-05-27T11:55:40.773Z,26.52
2018-05-27T11:56:48.386Z,26.46
2018-05-27T11:57:53.728Z,26.56
2018-05-27T11:59:01.157Z,26.51
2018-05-27T12:00:07.705Z,26.43
2018-05-27T12:01:14.429Z,26.30
2018-05-27T12:02:20.257Z,26.28
2018-05-27T12:03:27.427Z,26.14
2018-05-27T12:04:34.122Z,26.16
2018-05-27T12:05:40.875Z,26.27
2018-05-27T12:06:47.221Z,26.19
2018-05-27T12:07:53.539Z,26.09
2018-05-27T12:09:01.555Z,25.95
2018-05-27T12:10:14.044Z,25.77
2018-05-27T12:11:24.776Z,25.57
2018-05-27T12:12:31.235Z,25.49
2018-05-27T12:13:42.507Z,25.47
2018-05-27T12:14:51.804Z,25.42
2018-05-27T12:15:56.780Z,25.42
2018-05-27T12:17:03.379Z,25.45
2018-05-27T12:18:10.145Z,25.40
2018-05-27T12:19:16.383Z,25.26
2018-05-27T12:20:23.121Z,25.25
2018-05-27T12:21:28.384Z,23.85
2018-05-27T12:22:38.041Z,23.19
2018-05-27T12:23:47.159Z,22.76
2018-05-27T12:24:52.291Z,22.65
2018-05-27T12:25:58.968Z,22.53
2018-05-27T12:27:05.251Z,22.29
2018-05-27T12:28:11.563Z,21.79
2018-05-27T12:29:17.671Z,21.26
2018-05-27T12:30:26.336Z,21.00
2018-05-27T12:31:35.593Z,20.55
2018-05-27T12:32:42.030Z,20.59
2018-05-27T12:33:51.197Z,20.59
2018-05-27T12:35:00.493Z,20.61
2018-05-27T12:36:05.713Z,20.78
2018-05-27T12:37:12.215Z,20.86
2018-05-27T12:38:17.022Z,21.16
2018-05-27T12:39:22.394Z,21.25
2018-05-27T12:40:26.990Z,21.31
2018-05-27T12:41:32.750Z,21.36
2018-05-27T12:42:37.397Z,21.36
2018-05-27T12:43:42.827Z,21.26
2018-05-27T12:44:47.518Z,21.17
2018-05-27T12:45:53.819Z,21.11
2018-05-27T12:46:58.531Z,21.29
2018-05-27T12:48:03.147Z,21.50
2018-05-27T12:49:09.066Z,21.62
2018-05-27T12:50:13.883Z,21.80
2018-05-27T12:51:18.541Z,22.01
2018-05-27T12:52:23.146Z,22.18
2018-05-27T12:53:27.713Z,22.21
2018-05-27T12:54:32.311Z,22.10
2018-05-27T12:55:37.364Z,22.13
2018-05-27T12:56:41.953Z,22.14
2018-05-27T12:57:46.685Z,22.23
2018-05-27T12:58:51.342Z,22.07
2018-05-27T12:59:56.109Z,21.97
2018-05-27T13:01:00.738Z,21.84
2018-05-27T13:02:05.883Z,21.79
2018-05-27T13:03:10.518Z,21.71
2018-05-27T13:04:15.311Z,21.49
2018-05-27T13:05:19.916Z,21.49
2018-05-27T13:06:25.600Z,21.53
2018-05-27T13:07:30.231Z,21.49
2018-05-27T13:08:35.358Z,21.57
2018-05-27T13:09:40.260Z,21.63
2018-05-27T13:10:45.153Z,21.76
2018-05-27T13:11:50.942Z,21.70
2018-05-27T13:12:56.544Z,21.46
2018-05-27T13:14:03.184Z,21.57
2018-05-27T13:15:10.208Z,21.64
2018-05-27T13:16:15.096Z,21.63
2018-05-27T13:17:20.899Z,21.72
2018-05-27T13:18:25.459Z,21.73
2018-05-27T13:19:30.993Z,21.50
2018-05-27T13:20:35.849Z,21.52
2018-05-27T13:21:40.899Z,21.70
2018-05-27T13:22:45.517Z,21.86
2018-05-27T13:23:50.231Z,21.77
2018-05-27T13:24:54.959Z,21.96
2018-05-27T13:26:00.201Z,21.97
2018-05-27T13:27:04.911Z,22.08
2018-05-27T13:28:10.701Z,22.19
2018-05-27T13:29:15.292Z,22.24
2018-05-27T13:30:20.505Z,22.49
2018-05-27T13:31:25.227Z,22.69
2018-05-27T13:32:29.899Z,22.72
2018-05-27T13:33:34.650Z,22.60
2018-05-27T13:34:39.753Z,22.52
2018-05-27T13:35:44.339Z,22.48
2018-05-27T13:36:49.037Z,22.40
2018-05-27T13:37:53.738Z,22.51
2018-05-27T13:38:58.367Z,22.63
2018-05-27T13:40:03.039Z,22.62
2018-05-27T13:41:07.909Z,22.34
2018-05-27T13:42:12.508Z,22.25
2018-05-27T13:43:17.145Z,22.37
2018-05-27T13:44:21.886Z,22.52
2018-05-27T13:45:27.177Z,22.53
2018-05-27T13:46:32.391Z,22.44
2018-05-27T13:47:37.537Z,22.53
2018-05-27T13:48:42.240Z,22.55
2018-05-27T13:49:46.823Z,22.26
2018-05-27T13:50:51.411Z,22.08
2018-05-27T13:51:56.009Z,22.25
2018-05-27T13:53:00.561Z,22.42
2018-05-27T13:54:05.504Z,22.53
2018-05-27T13:55:10.186Z,22.81
2018-05-27T13:56:15.366Z,22.87
2018-05-27T13:57:20.852Z,22.66
2018-05-27T13:58:26.894Z,22.79
2018-05-27T13:59:31.518Z,22.98
2018-05-27T14:00:37.541Z,23.12
2018-05-27T14:01:42.246Z,23.33
2018-05-27T14:02:48.109Z,23.41
2018-05-27T14:03:53.127Z,23.57
2018-05-27T14:04:58.271Z,23.90